Time;durP1;ratioP1;P1;durP2;ratioP2;P2;SDS_P1;SDS_P2;PMS_P1;PMS_P2;Temp;Humidity;BMP_temperature;BMP_pressure;BME280_temperature;BME280_humidity;BME280_pressure;Samples;Min_cycle;Max_cycle;Signal;HPM_P1;HPM_P2
2022/11/03 00:00:52;;;;;;;0.52;0.52;;;;;;;-1.67;81.41;95273.22;6227966;28;20031;-63
2022/11/03 00:03:56;;;;;;;0.50;0.50;;;;;;;-1.74;81.85;95271.81;6248239;28;20052;-63
2022/11/03 00:07:00;;;;;;;0.40;0.40;;;;;;;-1.71;82.59;95282.00;6294221;28;20071;-64
2022/11/03 00:10:02;;;;;;;0.50;0.40;;;;;;;-1.66;81.62;95274.91;6292572;28;20039;-65
2022/11/03 00:13:04;;;;;;;0.63;0.45;;;;;;;-1.71;81.21;95276.84;6292230;28;20053;-64
2022/11/03 00:16:07;;;;;;;0.50;0.50;;;;;;;-1.59;81.11;95286.63;6290981;28;20059;-64
2022/11/03 00:19:15;;;;;;;0.90;0.63;;;;;;;-1.63;80.79;95279.94;6293328;28;20059;-64
2022/11/03 00:22:19;;;;;;;1.30;0.70;;;;;;;-1.47;80.25;95305.88;6293862;28;20044;-63
2022/11/03 00:25:20;;;;;;;2.40;1.30;;;;;;;-1.59;80.85;95296.94;6290595;28;20048;-64
2022/11/03 00:28:24;;;;;;;2.03;0.98;;;;;;;-1.59;80.42;95297.75;6289230;28;20058;-63
2022/11/03 00:31:33;;;;;;;2.95;0.82;;;;;;;-1.56;81.21;95296.81;6284632;28;20045;-63
2022/11/03 00:34:40;;;;;;;0.68;0.68;;;;;;;-1.72;80.89;95288.06;6283170;28;20036;-64
2022/11/03 00:37:41;;;;;;;1.10;0.90;;;;;;;-1.68;81.43;95289.59;6295040;28;20109;-63
2022/11/03 00:40:51;;;;;;;1.55;1.30;;;;;;;-1.68;80.88;95289.59;6302067;28;20044;-64
2022/11/03 00:43:54;;;;;;;2.42;1.30;;;;;;;-1.60;80.72;95290.09;6288855;28;20043;-64
2022/11/03 00:46:55;;;;;;;1.20;0.87;;;;;;;-1.68;81.14;95295.59;6296913;28;20499;-64
2022/11/03 00:49:59;;;;;;;2.47;1.55;;;;;;;-1.66;81.22;95295.53;6292661;28;20044;-63
2022/11/03 00:53:04;;;;;;;1.85;1.60;;;;;;;-1.77;81.49;95297.72;6299907;28;20143;-63
2022/11/03 00:56:08;;;;;;;2.90;1.85;;;;;;;-1.81;81.97;95305.59;6300277;28;20201;-63
2022/11/03 00:59:13;;;;;;;2.15;1.30;;;;;;;-1.71;81.73;95302.63;6291481;28;20079;-63
2022/11/03 01:02:17;;;;;;;1.40;0.95;;;;;;;-1.76;81.92;95312.28;6284259;28;20569;-64
2022/11/03 01:08:46;;;;;;;0.30;0.30;;;;;;;-1.67;81.23;95314.47;6192691;28;20042;-63
2022/11/03 01:12:02;;;;;;;1.42;1.02;;;;;;;-1.88;81.08;95311.06;6199450;28;20125;-64
2022/11/03 01:15:04;;;;;;;0.38;0.38;;;;;;;-2.03;81.05;95309.94;6189088;28;20058;-64
2022/11/03 01:18:08;;;;;;;0.73;0.70;;;;;;;-2.15;82.17;95324.16;6209053;28;20045;-64
2022/11/03 01:21:10;;;;;;;1.25;0.55;;;;;;;-2.15;81.39;95313.00;6234862;28;20046;-64
2022/11/03 01:24:11;;;;;;;0.60;0.60;;;;;;;-2.05;81.34;95328.03;6211675;28;20055;-64
2022/11/03 01:27:17;;;;;;;0.40;0.40;;;;;;;-2.30;81.39;95323.00;6210361;28;20040;-63
2022/11/03 01:30:21;;;;;;;1.60;0.90;;;;;;;-2.32;81.48;95317.09;6219340;28;20070;-63
2022/11/03 01:33:27;;;;;;;0.47;0.47;;;;;;;-2.29;81.10;95322.13;6220845;28;20050;-64
2022/11/03 01:36:29;;;;;;;;;;;;;;;-2.40;80.97;95321.72;6223363;28;20531;-64
2022/11/03 01:39:34;;;;;;;0.25;0.25;;;;;;;-2.45;81.50;95321.03;6218001;28;19957;-65
2022/11/03 01:42:45;;;;;;;0.82;0.77;;;;;;;-2.55;81.26;95335.16;6205485;28;20180;-65
2022/11/03 01:46:00;;;;;;;1.00;0.68;;;;;;;-2.51;81.49;95329.00;6207385;28;20046;-64
2022/11/03 01:49:07;;;;;;;0.50;0.30;;;;;;;-2.48;81.10;95336.63;6227925;28;20427;-63
2022/11/03 01:52:32;;;;;;;0.52;0.52;;;;;;;-2.52;80.85;95327.31;6260529;28;20066;-64
2022/11/03 01:55:39;;;;;;;0.60;0.40;;;;;;;-2.66;81.02;95337.31;6195750;28;20054;-64
2022/11/03 01:58:43;;;;;;;0.63;0.63;;;;;;;-2.81;81.55;95334.41;6223280;28;20040;-64
2022/11/03 02:01:47;;;;;;;0.60;0.60;;;;;;;-2.72;81.61;95328.94;6214393;28;20434;-63
2022/11/03 02:04:49;;;;;;;0.98;0.65;;;;;;;-2.91;81.90;95312.50;6222585;28;20048;-62
2022/11/03 02:08:02;;;;;;;2.17;0.90;;;;;;;-2.86;82.10;95336.34;6215179;28;20054;-62
2022/11/03 02:14:29;;;;;;;1.27;1.17;;;;;;;-2.66;82.11;95347.59;6207050;28;20048;-63
2022/11/03 02:17:36;;;;;;;1.15;1.05;;;;;;;-2.60;81.02;95337.09;6231110;28;20044;-64
2022/11/03 02:20:40;;;;;;;3.22;1.60;;;;;;;-2.68;81.55;95339.94;6200583;28;20131;-63
2022/11/03 02:24:17;;;;;;;1.05;0.98;;;;;;;-2.64;81.61;95340.66;6225887;28;20507;-63
2022/11/03 02:27:21;;;;;;;1.20;1.00;;;;;;;-2.62;81.21;95349.19;6208840;28;20050;-64
2022/11/03 02:30:22;;;;;;;3.00;1.88;;;;;;;-2.88;81.81;95338.13;6219109;28;20055;-63
2022/11/03 02:33:58;;;;;;;1.70;1.20;;;;;;;-2.57;81.14;95347.28;6215503;28;20054;-63
2022/11/03 02:37:40;;;;;;;2.58;1.10;;;;;;;-2.67;81.00;95356.22;6221039;28;20058;-65
2022/11/03 02:40:46;;;;;;;2.10;1.08;;;;;;;-2.80;81.77;95356.69;6216630;28;20049;-63
2022/11/03 02:43:51;;;;;;;1.15;0.80;;;;;;;-2.84;81.17;95355.13;6212767;28;20515;-64
2022/11/03 02:47:02;;;;;;;0.63;0.63;;;;;;;-2.70;80.55;95354.59;6224729;28;20053;-64
2022/11/03 02:50:09;;;;;;;0.98;0.80;;;;;;;-2.83;80.64;95361.97;6210633;28;20043;-63
2022/11/03 02:53:12;;;;;;;1.05;0.60;;;;;;;-2.95;81.00;95365.78;6234659;28;20046;-63
2022/11/03 02:56:23;;;;;;;0.60;0.50;;;;;;;-3.04;81.81;95367.88;6237111;28;20431;-63
2022/11/03 02:59:36;;;;;;;0.68;0.40;;;;;;;-3.01;81.48;95370.34;6233452;28;20051;-63
2022/11/03 03:02:46;;;;;;;0.60;0.60;;;;;;;-3.01;81.83;95368.59;6212531;28;20038;-63
2022/11/03 03:05:54;;;;;;;0.77;0.68;;;;;;;-3.01;81.54;95378.06;6217977;28;20055;-64
2022/11/03 03:09:05;;;;;;;0.80;0.60;;;;;;;-3.07;82.24;95383.41;6220126;28;20499;-64
2022/11/03 03:12:09;;;;;;;1.45;0.98;;;;;;;-3.13;82.25;95379.34;6222196;28;20057;-64
2022/11/03 03:15:19;;;;;;;3.05;1.27;;;;;;;-3.23;82.76;95368.53;6210076;28;20616;-64
2022/11/03 03:18:50;;;;;;;1.25;1.05;;;;;;;-3.12;81.98;95380.16;6218676;28;20059;-64
2022/11/03 03:21:56;;;;;;;0.77;0.77;;;;;;;-3.07;82.30;95389.41;6222261;28;20054;-64
2022/11/03 03:25:00;;;;;;;0.60;0.60;;;;;;;-3.05;82.05;95397.91;6221284;28;20043;-64
2022/11/03 03:28:09;;;;;;;0.93;0.88;;;;;;;-2.85;81.82;95398.94;6223754;28;20176;-64
2022/11/03 03:31:17;;;;;;;0.85;0.68;;;;;;;-2.79;81.50;95398.72;6214775;28;20518;-64
2022/11/03 03:34:24;;;;;;;0.70;0.70;;;;;;;-2.73;82.03;95399.31;6219197;28;20040;-63
2022/11/03 03:37:34;;;;;;;0.77;0.60;;;;;;;-2.74;82.27;95400.22;6214760;28;20038;-64
2022/11/03 03:40:45;;;;;;;0.50;0.50;;;;;;;-2.53;81.54;95395.19;6214572;28;20465;-63
2022/11/03 03:43:59;;;;;;;0.85;0.60;;;;;;;-2.29;80.93;95398.59;6217665;28;20041;-63
2022/11/03 03:47:27;;;;;;;0.50;0.50;;;;;;;-2.24;80.89;95395.81;6210439;28;20046;-64
2022/11/03 03:50:33;;;;;;;0.77;0.75;;;;;;;-2.31;80.88;95406.34;6214384;28;20044;-63
2022/11/03 03:53:37;;;;;;;2.30;0.77;;;;;;;-2.30;81.47;95418.34;6214094;28;20080;-64
2022/11/03 03:56:54;;;;;;;0.80;0.70;;;;;;;-2.19;81.55;95410.19;6265710;28;20420;-64
2022/11/03 03:59:58;;;;;;;1.60;0.80;;;;;;;-2.07;82.05;95421.78;6227771;28;20127;-64
2022/11/03 04:03:02;;;;;;;0.68;0.50;;;;;;;-1.98;81.91;95425.72;6233892;28;20105;-64
2022/11/03 04:06:08;;;;;;;2.80;1.13;;;;;;;-1.87;81.50;95432.16;6263642;28;20455;-64
2022/11/03 04:09:12;;;;;;;1.25;1.13;;;;;;;-1.72;80.94;95432.47;6277520;28;20133;-64
2022/11/03 04:22:20;;;;;;;1.45;1.20;;;;;;;-1.53;78.37;95450.59;6275217;28;20033;-65
2022/11/03 04:25:24;;;;;;;1.15;0.90;;;;;;;-1.54;78.52;95439.44;6271078;28;20526;-64
2022/11/03 04:28:26;;;;;;;0.80;0.60;;;;;;;-1.31;78.51;95445.41;6266872;28;20557;-64
2022/11/03 04:31:32;;;;;;;0.65;0.60;;;;;;;-1.31;77.18;95443.66;6267324;28;20500;-64
2022/11/03 04:34:40;;;;;;;0.82;0.70;;;;;;;-1.36;77.37;95446.47;6275009;28;20064;-64
2022/11/03 04:37:41;;;;;;;0.88;0.82;;;;;;;-1.21;77.23;95446.72;6273554;28;20139;-65
2022/11/03 04:40:53;;;;;;;0.90;0.90;;;;;;;-1.29;77.06;95459.09;6275211;28;20495;-63
2022/11/03 04:44:00;;;;;;;0.73;0.73;;;;;;;-1.25;76.86;95450.31;6269601;28;20064;-64
2022/11/03 04:47:09;;;;;;;1.08;0.90;;;;;;;-1.08;75.78;95457.38;6273043;28;20029;-65
2022/11/03 04:50:18;;;;;;;1.20;0.90;;;;;;;-1.17;75.62;95458.59;6273034;28;20487;-64
2022/11/03 04:53:22;;;;;;;1.17;0.73;;;;;;;-0.82;74.40;95461.41;6268483;28;20110;-64
2022/11/03 04:56:32;;;;;;;1.40;1.08;;;;;;;-0.86;73.72;95462.47;6270663;28;20492;-64
2022/11/03 04:59:34;;;;;;;0.63;0.52;;;;;;;-0.85;74.59;95453.81;6275742;28;20388;-64
2022/11/03 05:02:35;;;;;;;1.55;0.93;;;;;;;-0.80;73.64;95462.22;6260838;28;20054;-63
2022/11/03 05:05:41;;;;;;;1.48;0.60;;;;;;;-0.86;72.87;95472.81;6208424;28;20058;-65
2022/11/03 05:08:46;;;;;;;0.63;0.63;;;;;;;-0.81;71.93;95469.13;6184475;28;20088;-65
2022/11/03 05:11:50;;;;;;;0.52;0.52;;;;;;;-0.98;72.36;95456.91;6190241;28;20045;-63
2022/11/03 05:15:04;;;;;;;0.75;0.65;;;;;;;-1.05;71.86;95468.41;6191731;28;20046;-65
2022/11/03 05:18:17;;;;;;;0.50;0.50;;;;;;;-1.00;72.42;95469.06;6196853;28;20045;-64
2022/11/03 05:21:22;;;;;;;0.70;0.70;;;;;;;-0.99;72.29;95460.41;6186779;28;20049;-63
2022/11/03 05:24:26;;;;;;;1.00;0.63;;;;;;;-0.91;72.94;95465.25;6185363;28;20044;-64
2022/11/03 05:27:33;;;;;;;0.75;0.75;;;;;;;-0.76;70.64;95468.94;6187502;28;20045;-64
2022/11/03 05:30:37;;;;;;;1.02;0.80;;;;;;;-0.87;71.52;95465.97;6193630;28;20047;-64
2022/11/03 05:33:46;;;;;;;0.32;0.32;;;;;;;-0.97;71.98;95476.66;6161689;28;20171;-65
2022/11/03 05:36:49;;;;;;;0.55;0.55;;;;;;;-0.89;71.44;95460.03;6152485;28;20048;-64
2022/11/03 05:39:55;;;;;;;0.70;0.70;;;;;;;-0.87;71.61;95466.81;6131103;28;20371;-64
2022/11/03 05:42:59;;;;;;;1.42;0.80;;;;;;;-0.87;72.80;95464.22;6150419;28;20046;-63
2022/11/03 05:46:03;;;;;;;0.70;0.70;;;;;;;-0.82;73.09;95471.75;6144119;28;20055;-65
2022/11/03 05:49:09;;;;;;;1.40;1.30;;;;;;;-0.68;73.66;95466.84;6157355;28;20054;-63
2022/11/03 05:52:18;;;;;;;1.25;1.15;;;;;;;-0.48;74.02;95474.59;6143776;28;20055;-64
2022/11/03 05:55:28;;;;;;;1.88;1.10;;;;;;;-0.42;74.15;95477.81;6145736;28;20044;-63
2022/11/03 05:58:37;;;;;;;2.65;1.33;;;;;;;-0.32;75.37;95473.88;6154393;28;20401;-63
2022/11/03 06:01:41;;;;;;;2.35;1.70;;;;;;;-0.10;75.42;95474.59;6151666;28;20043;-64
2022/11/03 06:04:45;;;;;;;2.13;1.58;;;;;;;0.08;73.98;95472.09;6159278;28;20131;-64
2022/11/03 06:07:52;;;;;;;2.35;2.08;;;;;;;0.09;73.88;95473.78;6151437;28;20047;-63
2022/11/03 06:10:57;;;;;;;2.17;1.58;;;;;;;0.15;73.11;95486.44;6144940;28;20510;-63
2022/11/03 06:14:16;;;;;;;3.25;2.13;;;;;;;-0.11;73.55;95477.28;6143445;28;20549;-64
2022/11/03 06:17:26;;;;;;;2.13;1.52;;;;;;;0.02;71.64;95480.13;6167322;28;20569;-63
2022/11/03 06:20:31;;;;;;;2.13;1.60;;;;;;;-0.23;72.75;95478.66;6160483;28;20252;-63
2022/11/03 06:23:36;;;;;;;1.85;1.75;;;;;;;-0.13;72.76;95481.66;6189632;28;20132;-64
2022/11/03 06:26:37;;;;;;;2.42;1.98;;;;;;;-0.37;73.63;95475.84;6186125;28;20051;-64
2022/11/03 06:29:43;;;;;;;2.95;2.00;;;;;;;-0.41;74.63;95482.06;6172493;28;20089;-64
2022/11/03 06:32:47;;;;;;;1.80;1.10;;;;;;;-0.07;73.43;95489.97;6171024;28;20059;-64
2022/11/03 06:35:56;;;;;;;2.05;1.60;;;;;;;-0.29;72.78;95484.09;6200404;28;20129;-64
2022/11/03 06:39:05;;;;;;;3.22;1.85;;;;;;;-0.38;73.74;95490.50;6149121;28;20050;-64
2022/11/03 06:42:14;;;;;;;3.38;1.27;;;;;;;-0.13;73.32;95490.25;6152194;28;20040;-63
2022/11/03 06:45:22;;;;;;;1.98;1.80;;;;;;;-0.29;73.44;95494.44;6165572;28;20037;-70
2022/11/03 06:48:28;;;;;;;1.85;1.42;;;;;;;-0.33;73.53;95487.72;6175959;28;20357;-62
2022/11/03 06:51:34;;;;;;;2.88;1.70;;;;;;;-0.12;73.08;95491.09;6174970;28;20183;-62
2022/11/03 06:54:36;;;;;;;2.58;1.95;;;;;;;-0.10;73.15;95492.72;6175461;28;20076;-63
2022/11/03 06:57:40;;;;;;;1.25;1.08;;;;;;;-0.06;73.09;95489.09;6170594;28;20043;-63
2022/11/03 07:00:43;;;;;;;1.25;1.02;;;;;;;-0.05;73.15;95495.09;6176669;28;20052;-64
2022/11/03 07:03:48;;;;;;;1.88;1.23;;;;;;;0.04;72.52;95496.44;6167428;28;20046;-64
2022/11/03 07:06:52;;;;;;;1.48;1.38;;;;;;;0.07;71.24;95491.09;6168165;28;21967;-63
2022/11/03 07:09:59;;;;;;;2.03;1.50;;;;;;;-0.04;73.43;95484.66;6181666;28;20141;-63
2022/11/03 07:13:13;;;;;;;2.50;1.50;;;;;;;0.32;71.94;95498.59;6178332;28;20043;-63
2022/11/03 07:16:34;;;;;;;2.50;1.45;;;;;;;0.25;71.66;95495.41;6184554;28;20046;-63
2022/11/03 07:19:44;;;;;;;2.33;1.25;;;;;;;0.33;72.19;95490.72;6174342;28;20054;-67
2022/11/03 07:22:51;;;;;;;2.20;1.20;;;;;;;0.42;71.75;95492.06;6169990;28;20575;-65
2022/11/03 07:26:04;;;;;;;1.80;1.23;;;;;;;0.43;71.94;95494.59;6166757;28;20047;-66
2022/11/03 07:29:17;;;;;;;2.40;1.20;;;;;;;0.63;70.81;95491.03;6221980;28;20043;-66
2022/11/03 07:32:23;;;;;;;1.87;1.33;;;;;;;0.59;69.74;95499.03;6175479;28;20562;-65
2022/11/03 07:35:32;;;;;;;1.08;0.98;;;;;;;0.54;69.28;95480.28;6166718;28;20039;-68
2022/11/03 07:38:37;;;;;;;1.60;1.50;;;;;;;0.41;69.39;95491.22;6167797;28;20529;-65
2022/11/03 07:41:39;;;;;;;1.73;1.55;;;;;;;0.34;71.11;95500.19;6169732;28;20058;-65
2022/11/03 07:44:42;;;;;;;2.65;1.85;;;;;;;0.48;71.24;95501.28;6170400;28;20497;-65
2022/11/03 07:47:44;;;;;;;2.00;1.08;;;;;;;0.88;70.16;95506.25;6170836;28;20575;-65
2022/11/03 07:50:47;;;;;;;3.03;1.85;;;;;;;1.05;69.35;95508.00;6169558;28;20223;-64
2022/11/03 07:53:51;;;;;;;0.85;0.82;;;;;;;1.55;68.36;95507.19;6167494;28;20124;-65
2022/11/03 07:57:07;;;;;;;2.33;1.52;;;;;;;1.70;66.88;95513.38;6171411;28;20513;-65
2022/11/03 08:00:20;;;;;;;1.48;1.38;;;;;;;1.20;67.50;95505.56;6168334;28;20189;-66
2022/11/03 08:03:51;;;;;;;1.88;1.27;;;;;;;1.19;69.39;95509.06;6166779;28;20505;-66
2022/11/03 08:06:55;;;;;;;1.23;1.13;;;;;;;1.26;69.10;95511.28;6180464;28;20038;-66
2022/11/03 08:09:58;;;;;;;1.48;1.30;;;;;;;1.52;68.23;95512.53;6204115;28;20036;-66
2022/11/03 08:12:59;;;;;;;1.55;0.47;;;;;;;1.65;66.90;95517.97;6246962;28;20420;-67
2022/11/03 08:16:03;;;;;;;1.35;1.25;;;;;;;1.37;67.12;95507.31;6186087;28;20039;-67
2022/11/03 08:19:06;;;;;;;1.50;1.05;;;;;;;1.48;66.70;95505.84;6151747;28;20518;-66
2022/11/03 08:22:09;;;;;;;0.90;0.90;;;;;;;1.53;67.36;95516.00;6174104;28;20188;-67
2022/11/03 08:25:10;;;;;;;1.05;0.95;;;;;;;1.67;65.65;95510.09;6220254;28;20482;-66
2022/11/03 08:28:19;;;;;;;1.67;1.30;;;;;;;1.65;66.26;95507.59;6203012;28;20039;-67
2022/11/03 08:31:26;;;;;;;1.52;0.85;;;;;;;1.78;65.13;95513.81;6155847;28;20611;-71
2022/11/03 08:34:33;;;;;;;1.73;0.82;;;;;;;1.65;65.30;95510.19;6151306;28;20038;-71
2022/11/03 08:37:40;;;;;;;1.00;0.90;;;;;;;1.75;65.00;95516.53;6156324;28;20051;-67
2022/11/03 08:40:44;;;;;;;1.25;0.80;;;;;;;2.71;65.23;95520.09;6143461;28;20055;-70
2022/11/03 08:43:47;;;;;;;1.17;0.95;;;;;;;3.21;63.88;95518.16;6144290;28;20079;-70
2022/11/03 08:46:53;;;;;;;1.83;1.00;;;;;;;3.37;60.83;95526.75;6144836;28;20039;-68
2022/11/03 08:49:57;;;;;;;0.60;0.50;;;;;;;2.86;60.72;95519.25;6147318;28;20077;-67
2022/11/03 08:52:58;;;;;;;2.78;0.70;;;;;;;2.61;61.24;95524.97;6130494;28;20051;-67
2022/11/03 08:55:59;;;;;;;1.23;0.80;;;;;;;2.07;63.26;95519.22;6147783;28;20055;-67
2022/11/03 08:59:06;;;;;;;1.48;1.00;;;;;;;1.75;64.62;95519.13;6142260;28;20045;-67
2022/11/03 09:02:12;;;;;;;1.00;0.80;;;;;;;1.47;66.14;95524.94;6149655;28;20038;-67
2022/11/03 09:05:17;;;;;;;0.38;0.38;;;;;;;1.31;66.16;95519.66;6161513;28;20069;-68
2022/11/03 09:08:22;;;;;;;1.27;0.90;;;;;;;0.66;67.33;95490.91;6206276;28;20047;-67
2022/11/03 09:11:23;;;;;;;0.90;0.50;;;;;;;0.87;68.24;95530.44;6146279;28;20421;-68
2022/11/03 09:14:27;;;;;;;2.47;1.20;;;;;;;0.50;69.12;95525.34;6226753;28;20584;-68
2022/11/03 09:17:32;;;;;;;0.55;0.55;;;;;;;0.79;69.26;95524.81;6195062;28;20036;-68
2022/11/03 09:20:37;;;;;;;1.08;1.02;;;;;;;1.03;69.18;95524.53;6256796;28;20989;-69
2022/11/03 09:23:38;;;;;;;0.57;0.55;;;;;;;1.66;68.82;95540.38;6294284;28;20143;-67
2022/11/03 09:26:44;;;;;;;0.80;0.80;;;;;;;2.14;65.91;95535.31;6277700;28;20090;-68
2022/11/03 09:29:48;;;;;;;1.85;0.98;;;;;;;1.78;64.51;95524.19;6154116;28;20147;-68
2022/11/03 09:32:52;;;;;;;0.90;0.88;;;;;;;1.30;66.60;95527.50;6153682;28;20046;-68
2022/11/03 09:35:54;;;;;;;0.73;0.73;;;;;;;1.10;67.68;95526.75;6201009;28;20433;-68
2022/11/03 09:38:55;;;;;;;0.75;0.75;;;;;;;1.42;66.48;95526.91;6147143;28;20039;-68
2022/11/03 09:42:02;;;;;;;1.08;0.98;;;;;;;1.46;66.12;95525.81;6159176;28;20502;-68
2022/11/03 09:45:08;;;;;;;1.10;1.00;;;;;;;1.45;64.05;95518.97;6158508;28;20042;-68
2022/11/03 09:48:13;;;;;;;0.90;0.90;;;;;;;1.15;66.21;95517.91;6159276;28;20042;-70
2022/11/03 09:51:22;;;;;;;1.33;0.90;;;;;;;1.11;66.76;95522.41;6145012;28;20035;-69
2022/11/03 09:54:23;;;;;;;1.75;0.90;;;;;;;0.97;65.95;95520.50;6160069;28;20046;-70
2022/11/03 09:57:26;;;;;;;2.05;0.90;;;;;;;0.70;67.05;95517.47;6148263;28;20413;-70
2022/11/03 10:00:28;;;;;;;1.37;0.90;;;;;;;0.78;67.89;95512.75;6146981;28;20030;-70
2022/11/03 10:03:30;;;;;;;1.00;0.90;;;;;;;0.69;66.80;95514.97;6157749;28;20058;-71
2022/11/03 10:06:37;;;;;;;1.15;0.75;;;;;;;0.56;67.14;95518.13;6181186;28;20034;-71
2022/11/03 10:09:45;;;;;;;0.65;0.55;;;;;;;0.59;67.88;95515.38;6177282;28;20083;-71
2022/11/03 10:12:48;;;;;;;0.80;0.75;;;;;;;0.48;67.94;95512.47;6192417;28;20133;-70
2022/11/03 10:15:50;;;;;;;0.57;0.57;;;;;;;0.46;68.22;95516.06;6212003;28;20062;-72
2022/11/03 10:18:54;;;;;;;1.02;0.93;;;;;;;0.25;69.43;95526.47;6195585;28;20409;-71
2022/11/03 10:21:59;;;;;;;2.00;1.00;;;;;;;0.51;68.19;95516.66;6194940;28;20524;-68
2022/11/03 10:25:25;;;;;;;1.02;0.90;;;;;;;0.38;68.39;95522.41;6190325;28;20684;-69
2022/11/03 10:28:29;;;;;;;0.60;0.60;;;;;;;0.29;69.57;95520.25;6176197;28;20133;-69
2022/11/03 10:31:38;;;;;;;1.40;0.95;;;;;;;0.43;68.92;95528.22;6180044;28;20042;-67
2022/11/03 10:34:41;;;;;;;1.35;0.88;;;;;;;0.56;68.57;95519.88;6173317;28;20058;-68
2022/11/03 10:37:44;;;;;;;2.25;1.05;;;;;;;0.71;68.14;95516.56;6173537;28;20489;-69
2022/11/03 10:40:48;;;;;;;0.98;0.90;;;;;;;0.65;69.27;95524.59;6175192;28;20043;-68
2022/11/03 10:44:10;;;;;;;1.58;1.05;;;;;;;0.96;66.79;95528.31;6183075;28;20437;-66
2022/11/03 10:47:43;;;;;;;2.42;1.08;;;;;;;0.68;68.42;95534.84;6172349;28;20038;-68
2022/11/03 10:50:48;;;;;;;1.48;1.08;;;;;;;0.77;67.32;95538.75;6158063;28;20140;-66
2022/11/03 10:53:52;;;;;;;2.03;1.10;;;;;;;0.66;66.41;95532.31;6164064;28;20203;-66
2022/11/03 10:57:00;;;;;;;2.15;0.70;;;;;;;0.53;67.50;95536.38;6169374;28;20038;-65
2022/11/03 11:00:04;;;;;;;1.33;0.73;;;;;;;0.53;67.10;95543.31;6174277;28;20038;-65
2022/11/03 11:03:11;;;;;;;1.15;0.77;;;;;;;0.34;67.77;95545.91;6165612;28;20053;-65
2022/11/03 11:06:23;;;;;;;2.30;0.80;;;;;;;0.52;68.13;95544.22;6178880;28;20426;-65
2022/11/03 11:09:27;;;;;;;1.30;1.20;;;;;;;0.22;68.18;95531.78;6164248;28;20054;-66
2022/11/03 11:12:31;;;;;;;0.82;0.82;;;;;;;0.05;68.91;95535.13;6197094;28;20068;-62
2022/11/03 11:15:38;;;;;;;1.48;1.35;;;;;;;-0.01;68.54;95531.06;6133530;28;20046;-64
2022/11/03 11:18:40;;;;;;;1.48;1.38;;;;;;;-0.25;69.61;95542.53;6143622;28;20046;-72
2022/11/03 11:21:42;;;;;;;2.40;1.48;;;;;;;-0.25;70.31;95537.34;6149113;28;20035;-61
2022/11/03 11:24:43;;;;;;;1.02;0.90;;;;;;;-0.28;70.33;95542.66;6162530;28;20143;-60
2022/11/03 11:27:44;;;;;;;2.70;1.55;;;;;;;-0.22;69.61;95541.53;6161151;28;20085;-65
2022/11/03 11:31:23;;;;;;;1.95;1.30;;;;;;;-0.40;71.45;95548.34;6201443;28;20051;-64
2022/11/03 11:34:34;;;;;;;3.38;1.92;;;;;;;-0.46;71.71;95550.28;6173079;28;20185;-64
2022/11/03 11:37:37;;;;;;;2.95;1.60;;;;;;;-0.53;72.10;95538.53;6190819;28;20448;-65
2022/11/03 11:40:51;;;;;;;3.47;1.50;;;;;;;-0.37;71.78;95553.38;6229786;28;20182;-64
2022/11/03 11:44:37;;;;;;;2.38;1.67;;;;;;;-0.26;71.66;95546.00;6233601;28;20044;-64
2022/11/03 11:47:44;;;;;;;2.95;1.60;;;;;;;-0.39;71.86;95552.63;6171620;28;20422;-64
2022/11/03 11:50:49;;;;;;;2.42;1.50;;;;;;;-0.51;72.00;95554.81;6213748;28;20051;-64
2022/11/03 11:53:53;;;;;;;1.73;1.60;;;;;;;-0.47;72.58;95551.19;6221385;28;20055;-67
2022/11/03 11:56:59;;;;;;;1.48;1.00;;;;;;;-0.67;73.54;95551.19;6295868;28;20098;-66
2022/11/03 12:00:04;;;;;;;2.03;1.52;;;;;;;-0.77;73.93;95561.03;6256173;28;20046;-67
2022/11/03 12:03:12;;;;;;;1.23;1.00;;;;;;;-0.73;74.42;95548.88;6177917;28;20054;-67
2022/11/03 12:06:16;;;;;;;2.83;1.38;;;;;;;-0.86;74.67;95560.59;6248511;28;20044;-66
2022/11/03 12:09:22;;;;;;;2.20;1.80;;;;;;;-0.76;73.85;95557.59;6291424;28;20033;-66
2022/11/03 12:12:32;;;;;;;1.45;1.33;;;;;;;-0.72;74.87;95558.28;6274075;28;20048;-66
2022/11/03 12:15:54;;;;;;;3.30;2.13;;;;;;;-0.76;74.75;95557.59;6293046;28;20071;-66
2022/11/03 12:19:35;;;;;;;4.85;1.85;;;;;;;-0.73;75.42;95556.63;6258941;28;20049;-66
2022/11/03 12:22:36;;;;;;;3.33;1.95;;;;;;;-0.92;74.95;95557.34;6256852;28;20041;-66
2022/11/03 12:25:41;;;;;;;2.40;2.20;;;;;;;-0.91;75.19;95563.34;6235769;28;20378;-66
2022/11/03 12:28:43;;;;;;;1.63;1.52;;;;;;;-0.77;75.71;95565.38;6242521;28;20040;-65
2022/11/03 12:31:48;;;;;;;3.92;2.38;;;;;;;-1.05;75.71;95553.59;6238436;28;20041;-65
2022/11/03 12:34:50;;;;;;;3.15;1.95;;;;;;;-1.01;76.38;95562.91;6232195;28;20183;-66
2022/11/03 12:37:51;;;;;;;4.03;2.22;;;;;;;-0.94;76.51;95564.31;6243538;28;20048;-65
2022/11/03 12:40:53;;;;;;;2.85;1.85;;;;;;;-0.93;75.93;95560.03;6252301;28;20063;-65
2022/11/03 12:43:57;;;;;;;4.35;2.20;;;;;;;-1.06;75.97;95548.50;6246101;28;20495;-64
2022/11/03 12:47:03;;;;;;;3.65;2.15;;;;;;;-1.17;76.86;95560.09;6271582;28;20047;-66
2022/11/03 12:50:04;;;;;;;4.63;3.17;;;;;;;-0.95;76.44;95557.50;6276714;28;20044;-73
2022/11/03 12:53:06;;;;;;;4.93;2.95;;;;;;;-1.03;76.08;95559.53;6270694;28;20054;-66
2022/11/03 12:56:09;;;;;;;7.18;3.33;;;;;;;-1.24;76.91;95565.56;6264398;28;20055;-64
2022/11/03 12:59:18;;;;;;;4.32;3.08;;;;;;;-1.03;76.70;95567.28;6271173;28;20048;-66
2022/11/03 13:02:19;;;;;;;4.40;3.08;;;;;;;-1.08;76.75;95564.03;6268335;28;20103;-65
2022/11/03 13:05:26;;;;;;;7.32;3.10;;;;;;;-1.10;77.35;95557.25;6188149;28;20043;-66
2022/11/03 13:08:33;;;;;;;9.32;3.50;;;;;;;-1.06;77.12;95574.31;6206003;28;20049;-66
2022/11/03 13:15:04;;;;;;;5.53;3.13;;;;;;;-1.17;77.33;95577.31;6180409;28;20052;-66
2022/11/03 13:18:09;;;;;;;3.95;2.72;;;;;;;-1.01;77.20;95573.22;6230326;28;20186;-67
2022/11/03 13:21:14;;;;;;;3.75;2.60;;;;;;;-1.10;77.16;95586.50;6240983;28;20056;-65
2022/11/03 13:24:16;;;;;;;5.63;3.08;;;;;;;-1.00;76.63;95569.75;6148922;28;20034;-65
2022/11/03 13:27:23;;;;;;;5.45;2.85;;;;;;;-1.09;77.28;95583.03;6145511;28;20043;-65
2022/11/03 13:30:28;;;;;;;4.50;2.90;;;;;;;-1.22;77.91;95572.34;6143762;28;20066;-66
2022/11/03 13:33:30;;;;;;;4.10;2.90;;;;;;;-1.20;77.83;95580.03;6145610;28;20745;-65
2022/11/03 13:36:31;;;;;;;3.92;2.72;;;;;;;-1.00;77.82;95584.41;6151869;28;20039;-66
2022/11/03 13:39:39;;;;;;;4.72;3.03;;;;;;;-1.12;78.00;95593.47;6149632;28;20429;-65
2022/11/03 13:42:46;;;;;;;4.78;3.03;;;;;;;-1.28;77.79;95579.47;6162992;28;21883;-66
2022/11/03 13:45:47;;;;;;;2.95;2.42;;;;;;;-1.00;77.26;95592.97;6162235;28;20054;-64
2022/11/03 13:48:49;;;;;;;3.67;2.63;;;;;;;-1.16;77.17;95579.84;6146575;28;20054;-65
2022/11/03 13:51:53;;;;;;;5.00;2.95;;;;;;;-1.13;77.79;95590.06;6149269;28;20047;-66
2022/11/03 13:54:57;;;;;;;4.07;2.72;;;;;;;-1.22;78.15;95589.56;6167500;28;20046;-65
2022/11/03 13:58:03;;;;;;;5.60;3.25;;;;;;;-1.09;78.06;95585.59;6167476;28;20042;-66
2022/11/03 14:01:04;;;;;;;7.35;3.47;;;;;;;-1.08;77.74;95597.59;6167771;28;20535;-66
2022/11/03 14:04:08;;;;;;;8.20;2.88;;;;;;;-1.29;78.35;95598.44;6183884;28;20054;-66
2022/11/03 14:07:13;;;;;;;4.88;2.75;;;;;;;-1.11;78.42;95592.56;6192144;28;20147;-68
2022/11/03 14:10:17;;;;;;;4.13;2.60;;;;;;;-1.19;78.69;95592.00;6190813;28;20433;-66
2022/11/03 14:13:22;;;;;;;4.65;2.97;;;;;;;-1.06;78.20;95597.56;6191416;28;20046;-68
2022/11/03 14:16:29;;;;;;;3.63;2.53;;;;;;;-1.09;78.24;95601.09;6192123;28;20051;-66
2022/11/03 14:19:33;;;;;;;6.10;3.40;;;;;;;-1.07;78.63;95612.22;6188057;28;20477;-65
2022/11/03 14:22:38;;;;;;;6.85;3.63;;;;;;;-1.25;78.46;95611.16;6167815;28;20126;-66
2022/11/03 14:25:47;;;;;;;4.65;3.15;;;;;;;-1.24;78.55;95607.69;6163440;28;20554;-66
2022/11/03 14:28:53;;;;;;;5.88;3.45;;;;;;;-1.29;79.13;95613.94;6168228;28;20495;-66
2022/11/03 14:31:57;;;;;;;2.53;2.00;;;;;;;-1.19;78.69;95610.94;6167681;28;20038;-66
2022/11/03 14:35:04;;;;;;;3.83;2.28;;;;;;;-1.17;78.59;95613.44;6168911;28;20413;-65
2022/11/03 14:38:06;;;;;;;3.70;2.20;;;;;;;-1.14;77.76;95623.66;6170392;28;20397;-65
2022/11/03 14:44:34;;;;;;;2.15;1.38;;;;;;;-1.33;79.47;95618.38;6167071;28;20136;-65
2022/11/03 14:47:43;;;;;;;2.17;1.60;;;;;;;-1.21;78.99;95614.50;6173426;28;20042;-65
2022/11/03 14:50:47;;;;;;;3.00;2.28;;;;;;;-1.17;79.10;95613.44;6170091;28;20425;-65
2022/11/03 14:53:48;;;;;;;;;;;;;;;-1.11;79.04;95613.22;6176550;28;20141;-65
2022/11/03 14:56:49;;;;;;;1.73;1.33;;;;;;;-1.22;78.35;95620.53;6194432;28;20063;-65
2022/11/03 14:59:53;;;;;;;2.90;1.42;;;;;;;-1.25;78.83;95615.50;6196412;28;20058;-66
2022/11/03 15:02:56;;;;;;;2.88;1.77;;;;;;;-1.29;78.65;95624.25;6200269;28;20118;-66
2022/11/03 15:06:01;;;;;;;2.42;1.80;;;;;;;-1.37;79.26;95624.53;6219013;28;20524;-66